sensor_id;sensor_type;location;lat;lon;timestamp;P1;durP1;ratioP1;P2;durP2;ratioP2
35612;SDS011;22054;51.646;7.078;2023-09-18T00:00:06;6.40;;;6.20;;
35612;SDS011;22054;51.646;7.078;2023-09-18T00:02:36;6.20;;;6.00;;
35612;SDS011;22054;51.646;7.078;2023-09-18T00:05:02;6.10;;;5.90;;
35612;SDS011;22054;51.646;7.078;2023-09-18T00:07:31;6.22;;;6.03;;
35612;SDS011;22054;51.646;7.078;2023-09-18T00:09:59;6.13;;;5.93;;
35612;SDS011;22054;51.646;7.078;2023-09-18T00:12:24;6.40;;;6.20;;
35612;SDS011;22054;51.646;7.078;2023-09-18T00:14:56;6.10;;;5.90;;
35612;SDS011;22054;51.646;7.078;2023-09-18T00:17:22;6.38;;;6.18;;
35612;SDS011;22054;51.646;7.078;2023-09-18T00:19:48;6.00;;;5.80;;
35612;SDS011;22054;51.646;7.078;2023-09-18T00:22:16;6.40;;;6.20;;
35612;SDS011;22054;51.646;7.078;2023-09-18T00:24:42;6.80;;;6.50;;
35612;SDS011;22054;51.646;7.078;2023-09-18T00:27:08;6.50;;;6.30;;
35612;SDS011;22054;51.646;7.078;2023-09-18T00:29:37;6.43;;;6.22;;
35612;SDS011;22054;51.646;7.078;2023-09-18T00:32:03;6.47;;;6.28;;
35612;SDS011;22054;51.646;7.078;2023-09-18T00:34:29;6.47;;;6.28;;
35612;SDS011;22054;51.646;7.078;2023-09-18T00:36:57;6.40;;;6.20;;
35612;SDS011;22054;51.646;7.078;2023-09-18T00:39:24;6.10;;;5.90;;
35612;SDS011;22054;51.646;7.078;2023-09-18T00:41:50;6.40;;;6.20;;
35612;SDS011;22054;51.646;7.078;2023-09-18T00:44:19;6.00;;;5.80;;
35612;SDS011;22054;51.646;7.078;2023-09-18T00:46:46;5.90;;;5.70;;
35612;SDS011;22054;51.646;7.078;2023-09-18T00:49:16;6.00;;;5.80;;
35612;SDS011;22054;51.646;7.078;2023-09-18T00:51:43;6.38;;;6.18;;
35612;SDS011;22054;51.646;7.078;2023-09-18T00:54:09;6.18;;;5.97;;
35612;SDS011;22054;51.646;7.078;2023-09-18T00:56:36;6.20;;;6.00;;
35612;SDS011;22054;51.646;7.078;2023-09-18T00:59:02;6.20;;;6.00;;
35612;SDS011;22054;51.646;7.078;2023-09-18T01:01:28;6.30;;;6.10;;
35612;SDS011;22054;51.646;7.078;2023-09-18T01:03:59;6.50;;;6.30;;
35612;SDS011;22054;51.646;7.078;2023-09-18T01:06:25;6.18;;;5.97;;
35612;SDS011;22054;51.646;7.078;2023-09-18T01:08:55;6.63;;;6.32;;
35612;SDS011;22054;51.646;7.078;2023-09-18T01:17:00;6.53;;;6.30;;
35612;SDS011;22054;51.646;7.078;2023-09-18T01:19:43;6.68;;;6.38;;
35612;SDS011;22054;51.646;7.078;2023-09-18T01:22:12;6.82;;;6.53;;
35612;SDS011;22054;51.646;7.078;2023-09-18T01:24:46;6.68;;;6.38;;
35612;SDS011;22054;51.646;7.078;2023-09-18T01:27:13;6.20;;;6.00;;
35612;SDS011;22054;51.646;7.078;2023-09-18T01:29:45;6.22;;;6.03;;
35612;SDS011;22054;51.646;7.078;2023-09-18T01:32:11;6.43;;;6.22;;
35612;SDS011;22054;51.646;7.078;2023-09-18T01:34:47;6.40;;;6.20;;
35612;SDS011;22054;51.646;7.078;2023-09-18T01:37:23;6.35;;;6.15;;
35612;SDS011;22054;51.646;7.078;2023-09-18T01:39:52;6.43;;;6.22;;
35612;SDS011;22054;51.646;7.078;2023-09-18T01:42:18;6.30;;;6.10;;
35612;SDS011;22054;51.646;7.078;2023-09-18T01:44:45;6.70;;;6.40;;
35612;SDS011;22054;51.646;7.078;2023-09-18T01:47:14;6.15;;;5.95;;
35612;SDS011;22054;51.646;7.078;2023-09-18T01:49:43;6.40;;;6.20;;
35612;SDS011;22054;51.646;7.078;2023-09-18T01:52:09;6.70;;;6.40;;
35612;SDS011;22054;51.646;7.078;2023-09-18T01:54:35;6.20;;;6.00;;
35612;SDS011;22054;51.646;7.078;2023-09-18T01:57:02;6.25;;;6.05;;
35612;SDS011;22054;51.646;7.078;2023-09-18T01:59:28;6.30;;;6.10;;
35612;SDS011;22054;51.646;7.078;2023-09-18T02:01:54;6.72;;;6.43;;
35612;SDS011;22054;51.646;7.078;2023-09-18T02:04:20;6.30;;;6.10;;
35612;SDS011;22054;51.646;7.078;2023-09-18T02:06:47;6.68;;;6.38;;
35612;SDS011;22054;51.646;7.078;2023-09-18T02:09:17;6.40;;;6.20;;
35612;SDS011;22054;51.646;7.078;2023-09-18T02:11:43;6.68;;;6.38;;
35612;SDS011;22054;51.646;7.078;2023-09-18T02:14:11;6.50;;;6.30;;
35612;SDS011;22054;51.646;7.078;2023-09-18T02:16:38;6.40;;;6.20;;
35612;SDS011;22054;51.646;7.078;2023-09-18T02:19:06;6.30;;;6.10;;
35612;SDS011;22054;51.646;7.078;2023-09-18T02:21:33;6.45;;;6.20;;
35612;SDS011;22054;51.646;7.078;2023-09-18T02:24:00;6.22;;;6.03;;
35612;SDS011;22054;51.646;7.078;2023-09-18T02:26:26;6.22;;;6.03;;
35612;SDS011;22054;51.646;7.078;2023-09-18T02:28:53;6.10;;;5.90;;
35612;SDS011;22054;51.646;7.078;2023-09-18T02:31:20;5.97;;;5.78;;
35612;SDS011;22054;51.646;7.078;2023-09-18T02:33:47;6.70;;;6.40;;
35612;SDS011;22054;51.646;7.078;2023-09-18T02:36:14;6.68;;;6.38;;
35612;SDS011;22054;51.646;7.078;2023-09-18T02:38:40;6.40;;;6.20;;
35612;SDS011;22054;51.646;7.078;2023-09-18T02:41:06;6.32;;;6.10;;
35612;SDS011;22054;51.646;7.078;2023-09-18T02:43:32;6.20;;;6.00;;
35612;SDS011;22054;51.646;7.078;2023-09-18T02:45:58;6.30;;;6.10;;
35612;SDS011;22054;51.646;7.078;2023-09-18T02:48:24;6.38;;;6.18;;
35612;SDS011;22054;51.646;7.078;2023-09-18T02:50:49;6.55;;;6.30;;
35612;SDS011;22054;51.646;7.078;2023-09-18T02:55:49;6.22;;;6.03;;
35612;SDS011;22054;51.646;7.078;2023-09-18T02:58:19;6.43;;;6.22;;
35612;SDS011;22054;51.646;7.078;2023-09-18T03:00:46;6.30;;;6.10;;
35612;SDS011;22054;51.646;7.078;2023-09-18T03:03:15;6.20;;;6.00;;
35612;SDS011;22054;51.646;7.078;2023-09-18T03:05:42;6.30;;;6.10;;
35612;SDS011;22054;51.646;7.078;2023-09-18T03:08:09;6.28;;;6.07;;
35612;SDS011;22054;51.646;7.078;2023-09-18T03:10:40;6.43;;;6.20;;
35612;SDS011;22054;51.646;7.078;2023-09-18T03:13:08;6.35;;;6.15;;
35612;SDS011;22054;51.646;7.078;2023-09-18T03:15:35;6.10;;;5.90;;
35612;SDS011;22054;51.646;7.078;2023-09-18T03:18:02;6.20;;;6.00;;
35612;SDS011;22054;51.646;7.078;2023-09-18T03:20:29;6.07;;;5.88;;
35612;SDS011;22054;51.646;7.078;2023-09-18T03:22:59;6.50;;;6.30;;
35612;SDS011;22054;51.646;7.078;2023-09-18T03:25:27;6.15;;;5.95;;
35612;SDS011;22054;51.646;7.078;2023-09-18T03:27:56;6.70;;;6.40;;
35612;SDS011;22054;51.646;7.078;2023-09-18T03:30:23;6.00;;;5.80;;
35612;SDS011;22054;51.646;7.078;2023-09-18T03:32:49;6.70;;;6.40;;
35612;SDS011;22054;51.646;7.078;2023-09-18T03:35:16;7.47;;;7.18;;
35612;SDS011;22054;51.646;7.078;2023-09-18T03:40:21;6.93;;;6.63;;
35612;SDS011;22054;51.646;7.078;2023-09-18T03:42:50;6.90;;;6.60;;
35612;SDS011;22054;51.646;7.078;2023-09-18T03:45:16;6.78;;;6.47;;
35612;SDS011;22054;51.646;7.078;2023-09-18T03:47:43;7.13;;;6.82;;
35612;SDS011;22054;51.646;7.078;2023-09-18T03:50:09;7.15;;;6.85;;
35612;SDS011;22054;51.646;7.078;2023-09-18T03:52:38;6.97;;;6.68;;
35612;SDS011;22054;51.646;7.078;2023-09-18T03:55:05;6.30;;;6.10;;
35612;SDS011;22054;51.646;7.078;2023-09-18T03:57:31;6.57;;;6.30;;
35612;SDS011;22054;51.646;7.078;2023-09-18T03:59:57;6.60;;;6.30;;
35612;SDS011;22054;51.646;7.078;2023-09-18T04:02:24;6.20;;;6.00;;
35612;SDS011;22054;51.646;7.078;2023-09-18T04:04:50;6.38;;;6.18;;
35612;SDS011;22054;51.646;7.078;2023-09-18T04:07:16;6.70;;;6.40;;
35612;SDS011;22054;51.646;7.078;2023-09-18T04:09:44;6.57;;;6.32;;
35612;SDS011;22054;51.646;7.078;2023-09-18T04:12:10;6.05;;;5.85;;
35612;SDS011;22054;51.646;7.078;2023-09-18T04:14:36;6.40;;;6.20;;
35612;SDS011;22054;51.646;7.078;2023-09-18T04:17:02;6.05;;;5.85;;
35612;SDS011;22054;51.646;7.078;2023-09-18T04:19:28;6.28;;;6.07;;
35612;SDS011;22054;51.646;7.078;2023-09-18T04:21:54;6.05;;;5.85;;
35612;SDS011;22054;51.646;7.078;2023-09-18T04:24:20;6.40;;;6.20;;
35612;SDS011;22054;51.646;7.078;2023-09-18T04:26:47;6.10;;;5.90;;
35612;SDS011;22054;51.646;7.078;2023-09-18T04:29:16;6.18;;;5.97;;
35612;SDS011;22054;51.646;7.078;2023-09-18T04:31:42;6.20;;;6.00;;
35612;SDS011;22054;51.646;7.078;2023-09-18T04:34:08;6.32;;;6.13;;
35612;SDS011;22054;51.646;7.078;2023-09-18T04:36:35;7.30;;;7.00;;
35612;SDS011;22054;51.646;7.078;2023-09-18T04:39:02;6.50;;;6.30;;
35612;SDS011;22054;51.646;7.078;2023-09-18T04:41:31;6.20;;;6.00;;
35612;SDS011;22054;51.646;7.078;2023-09-18T04:43:58;6.70;;;6.40;;
35612;SDS011;22054;51.646;7.078;2023-09-18T04:46:24;6.50;;;6.30;;
35612;SDS011;22054;51.646;7.078;2023-09-18T04:48:50;6.30;;;6.10;;
35612;SDS011;22054;51.646;7.078;2023-09-18T04:51:16;6.38;;;6.18;;
35612;SDS011;22054;51.646;7.078;2023-09-18T04:53:42;6.20;;;6.00;;
35612;SDS011;22054;51.646;7.078;2023-09-18T04:56:08;6.85;;;6.55;;
35612;SDS011;22054;51.646;7.078;2023-09-18T04:58:35;6.90;;;6.60;;
35612;SDS011;22054;51.646;7.078;2023-09-18T05:01:02;6.88;;;6.57;;
35612;SDS011;22054;51.646;7.078;2023-09-18T05:03:35;6.80;;;6.50;;
35612;SDS011;22054;51.646;7.078;2023-09-18T05:06:03;7.00;;;6.70;;
35612;SDS011;22054;51.646;7.078;2023-09-18T05:08:29;6.70;;;6.40;;
35612;SDS011;22054;51.646;7.078;2023-09-18T05:10:56;7.03;;;6.72;;
35612;SDS011;22054;51.646;7.078;2023-09-18T05:13:22;7.15;;;6.85;;
35612;SDS011;22054;51.646;7.078;2023-09-18T05:15:48;7.55;;;7.25;;
35612;SDS011;22054;51.646;7.078;2023-09-18T05:18:14;7.18;;;6.88;;
35612;SDS011;22054;51.646;7.078;2023-09-18T05:20:40;7.20;;;6.90;;
35612;SDS011;22054;51.646;7.078;2023-09-18T05:23:06;6.90;;;6.60;;
35612;SDS011;22054;51.646;7.078;2023-09-18T05:25:32;6.60;;;6.30;;
35612;SDS011;22054;51.646;7.078;2023-09-18T05:28:10;6.20;;;6.00;;
35612;SDS011;22054;51.646;7.078;2023-09-18T05:30:37;6.15;;;5.95;;
35612;SDS011;22054;51.646;7.078;2023-09-18T05:33:10;6.20;;;6.00;;
35612;SDS011;22054;51.646;7.078;2023-09-18T05:35:41;6.60;;;6.30;;
35612;SDS011;22054;51.646;7.078;2023-09-18T05:38:09;6.78;;;6.47;;
35612;SDS011;22054;51.646;7.078;2023-09-18T05:40:38;6.80;;;6.50;;
35612;SDS011;22054;51.646;7.078;2023-09-18T05:43:04;7.15;;;6.85;;
35612;SDS011;22054;51.646;7.078;2023-09-18T05:45:31;6.35;;;6.15;;
35612;SDS011;22054;51.646;7.078;2023-09-18T05:47:58;6.70;;;6.40;;
35612;SDS011;22054;51.646;7.078;2023-09-18T05:50:29;6.30;;;6.10;;
35612;SDS011;22054;51.646;7.078;2023-09-18T05:52:57;6.20;;;6.00;;
35612;SDS011;22054;51.646;7.078;2023-09-18T05:55:29;6.30;;;6.10;;
35612;SDS011;22054;51.646;7.078;2023-09-18T05:57:59;6.07;;;5.88;;
35612;SDS011;22054;51.646;7.078;2023-09-18T06:00:25;6.30;;;6.10;;
35612;SDS011;22054;51.646;7.078;2023-09-18T06:02:51;6.30;;;6.10;;
35612;SDS011;22054;51.646;7.078;2023-09-18T06:05:17;6.30;;;6.10;;
35612;SDS011;22054;51.646;7.078;2023-09-18T06:07:48;6.70;;;6.40;;
35612;SDS011;22054;51.646;7.078;2023-09-18T06:10:14;6.30;;;6.10;;
35612;SDS011;22054;51.646;7.078;2023-09-18T06:12:40;6.57;;;6.32;;
35612;SDS011;22054;51.646;7.078;2023-09-18T06:15:07;6.30;;;6.10;;
35612;SDS011;22054;51.646;7.078;2023-09-18T06:20:05;6.55;;;6.30;;
35612;SDS011;22054;51.646;7.078;2023-09-18T06:22:39;7.13;;;6.82;;
35612;SDS011;22054;51.646;7.078;2023-09-18T06:25:06;6.38;;;6.18;;
35612;SDS011;22054;51.646;7.078;2023-09-18T06:27:34;6.82;;;6.53;;
35612;SDS011;22054;51.646;7.078;2023-09-18T06:30:01;6.45;;;6.25;;
35612;SDS011;22054;51.646;7.078;2023-09-18T06:32:28;6.40;;;6.20;;
35612;SDS011;22054;51.646;7.078;2023-09-18T06:34:54;6.10;;;5.90;;
35612;SDS011;22054;51.646;7.078;2023-09-18T06:37:22;6.72;;;6.43;;
35612;SDS011;22054;51.646;7.078;2023-09-18T06:39:48;5.80;;;5.60;;
35612;SDS011;22054;51.646;7.078;2023-09-18T06:42:14;5.70;;;5.50;;
35612;SDS011;22054;51.646;7.078;2023-09-18T06:44:40;5.90;;;5.70;;
35612;SDS011;22054;51.646;7.078;2023-09-18T06:47:06;5.63;;;5.43;;
35612;SDS011;22054;51.646;7.078;2023-09-18T06:49:32;6.45;;;6.22;;
35612;SDS011;22054;51.646;7.078;2023-09-18T06:51:57;6.32;;;6.13;;
35612;SDS011;22054;51.646;7.078;2023-09-18T06:54:23;5.85;;;5.65;;
35612;SDS011;22054;51.646;7.078;2023-09-18T06:56:49;5.93;;;5.72;;
35612;SDS011;22054;51.646;7.078;2023-09-18T06:59:15;6.20;;;6.00;;
35612;SDS011;22054;51.646;7.078;2023-09-18T07:01:41;5.60;;;5.40;;
35612;SDS011;22054;51.646;7.078;2023-09-18T07:04:07;6.00;;;5.80;;
35612;SDS011;22054;51.646;7.078;2023-09-18T07:06:33;5.90;;;5.70;;
35612;SDS011;22054;51.646;7.078;2023-09-18T07:08:59;6.00;;;5.80;;
35612;SDS011;22054;51.646;7.078;2023-09-18T07:11:25;5.70;;;5.50;;
35612;SDS011;22054;51.646;7.078;2023-09-18T07:13:51;6.10;;;5.90;;
35612;SDS011;22054;51.646;7.078;2023-09-18T07:16:17;5.80;;;5.60;;
35612;SDS011;22054;51.646;7.078;2023-09-18T07:18:43;5.70;;;5.50;;
35612;SDS011;22054;51.646;7.078;2023-09-18T07:21:08;5.97;;;5.78;;
35612;SDS011;22054;51.646;7.078;2023-09-18T07:23:35;6.22;;;6.03;;
35612;SDS011;22054;51.646;7.078;2023-09-18T07:26:02;6.10;;;5.90;;
35612;SDS011;22054;51.646;7.078;2023-09-18T07:28:28;6.20;;;6.00;;
35612;SDS011;22054;51.646;7.078;2023-09-18T07:30:54;6.40;;;6.20;;
35612;SDS011;22054;51.646;7.078;2023-09-18T07:33:21;6.13;;;5.93;;
35612;SDS011;22054;51.646;7.078;2023-09-18T07:35:47;6.00;;;5.80;;
35612;SDS011;22054;51.646;7.078;2023-09-18T07:38:16;6.53;;;6.30;;
35612;SDS011;22054;51.646;7.078;2023-09-18T07:40:44;6.28;;;6.07;;
35612;SDS011;22054;51.646;7.078;2023-09-18T07:43:12;6.50;;;6.30;;
35612;SDS011;22054;51.646;7.078;2023-09-18T07:45:39;6.20;;;6.00;;
35612;SDS011;22054;51.646;7.078;2023-09-18T07:48:08;6.32;;;6.13;;
35612;SDS011;22054;51.646;7.078;2023-09-18T07:50:34;6.35;;;6.15;;
35612;SDS011;22054;51.646;7.078;2023-09-18T07:53:00;7.18;;;6.88;;
35612;SDS011;22054;51.646;7.078;2023-09-18T07:55:27;6.57;;;6.32;;
35612;SDS011;22054;51.646;7.078;2023-09-18T07:57:54;6.40;;;6.20;;
35612;SDS011;22054;51.646;7.078;2023-09-18T08:00:21;6.82;;;6.53;;
35612;SDS011;22054;51.646;7.078;2023-09-18T08:02:47;6.80;;;6.50;;
35612;SDS011;22054;51.646;7.078;2023-09-18T08:05:15;6.45;;;6.25;;
35612;SDS011;22054;51.646;7.078;2023-09-18T08:07:41;6.10;;;5.90;;
35612;SDS011;22054;51.646;7.078;2023-09-18T08:10:07;6.70;;;6.40;;
35612;SDS011;22054;51.646;7.078;2023-09-18T08:12:34;6.32;;;6.13;;
35612;SDS011;22054;51.646;7.078;2023-09-18T08:15:00;6.38;;;6.18;;
35612;SDS011;22054;51.646;7.078;2023-09-18T08:17:27;6.00;;;5.80;;
35612;SDS011;22054;51.646;7.078;2023-09-18T08:19:54;6.05;;;5.85;;
35612;SDS011;22054;51.646;7.078;2023-09-18T08:22:20;6.25;;;6.05;;
35612;SDS011;22054;51.646;7.078;2023-09-18T08:24:47;6.60;;;6.32;;
35612;SDS011;22054;51.646;7.078;2023-09-18T08:27:16;6.50;;;6.30;;
35612;SDS011;22054;51.646;7.078;2023-09-18T08:29:42;6.20;;;6.00;;
35612;SDS011;22054;51.646;7.078;2023-09-18T08:32:09;6.45;;;6.22;;
35612;SDS011;22054;51.646;7.078;2023-09-18T08:34:35;6.60;;;6.30;;
35612;SDS011;22054;51.646;7.078;2023-09-18T08:37:01;6.20;;;6.00;;
35612;SDS011;22054;51.646;7.078;2023-09-18T08:39:28;6.40;;;6.20;;
35612;SDS011;22054;51.646;7.078;2023-09-18T08:42:04;7.00;;;6.70;;
35612;SDS011;22054;51.646;7.078;2023-09-18T08:44:32;6.68;;;6.38;;
35612;SDS011;22054;51.646;7.078;2023-09-18T08:46:59;6.60;;;6.30;;
35612;SDS011;22054;51.646;7.078;2023-09-18T08:49:27;6.50;;;6.28;;
35612;SDS011;22054;51.646;7.078;2023-09-18T08:51:55;6.38;;;6.18;;
35612;SDS011;22054;51.646;7.078;2023-09-18T08:54:23;6.20;;;6.00;;
35612;SDS011;22054;51.646;7.078;2023-09-18T08:56:50;6.10;;;5.90;;
35612;SDS011;22054;51.646;7.078;2023-09-18T08:59:17;6.15;;;5.95;;
35612;SDS011;22054;51.646;7.078;2023-09-18T09:01:46;6.20;;;6.00;;
35612;SDS011;22054;51.646;7.078;2023-09-18T09:04:12;5.95;;;5.75;;
35612;SDS011;22054;51.646;7.078;2023-09-18T09:06:38;5.97;;;5.78;;
35612;SDS011;22054;51.646;7.078;2023-09-18T09:09:04;6.18;;;5.97;;
35612;SDS011;22054;51.646;7.078;2023-09-18T09:11:30;6.38;;;6.18;;
35612;SDS011;22054;51.646;7.078;2023-09-18T09:14:08;6.45;;;6.22;;
35612;SDS011;22054;51.646;7.078;2023-09-18T09:16:49;6.60;;;6.30;;
35612;SDS011;22054;51.646;7.078;2023-09-18T09:19:16;6.18;;;5.97;;
35612;SDS011;22054;51.646;7.078;2023-09-18T09:21:43;6.18;;;5.97;;
35612;SDS011;22054;51.646;7.078;2023-09-18T09:24:15;6.03;;;5.82;;
35612;SDS011;22054;51.646;7.078;2023-09-18T09:26:41;6.00;;;5.80;;
35612;SDS011;22054;51.646;7.078;2023-09-18T09:29:14;5.80;;;5.60;;
35612;SDS011;22054;51.646;7.078;2023-09-18T09:31:45;6.05;;;5.85;;
35612;SDS011;22054;51.646;7.078;2023-09-18T09:34:12;6.70;;;6.40;;
35612;SDS011;22054;51.646;7.078;2023-09-18T09:36:51;6.43;;;6.22;;
35612;SDS011;22054;51.646;7.078;2023-09-18T09:39:20;5.97;;;5.78;;
35612;SDS011;22054;51.646;7.078;2023-09-18T09:44:19;5.50;;;5.30;;
35612;SDS011;22054;51.646;7.078;2023-09-18T09:46:48;6.20;;;6.00;;
35612;SDS011;22054;51.646;7.078;2023-09-18T09:49:16;5.68;;;5.47;;
35612;SDS011;22054;51.646;7.078;2023-09-18T09:51:44;6.07;;;5.88;;
35612;SDS011;22054;51.646;7.078;2023-09-18T09:54:11;5.82;;;5.63;;
35612;SDS011;22054;51.646;7.078;2023-09-18T09:56:49;5.90;;;5.70;;
35612;SDS011;22054;51.646;7.078;2023-09-18T09:59:19;6.80;;;6.50;;
35612;SDS011;22054;51.646;7.078;2023-09-18T10:01:46;6.00;;;5.80;;
35612;SDS011;22054;51.646;7.078;2023-09-18T10:04:16;6.20;;;6.00;;
35612;SDS011;22054;51.646;7.078;2023-09-18T10:06:44;6.93;;;6.63;;
35612;SDS011;22054;51.646;7.078;2023-09-18T10:09:20;7.28;;;6.97;;
35612;SDS011;22054;51.646;7.078;2023-09-18T10:11:49;7.15;;;6.85;;
35612;SDS011;22054;51.646;7.078;2023-09-18T10:14:19;7.00;;;6.70;;
35612;SDS011;22054;51.646;7.078;2023-09-18T10:16:53;6.47;;;6.25;;
35612;SDS011;22054;51.646;7.078;2023-09-18T10:19:33;6.15;;;5.95;;
35612;SDS011;22054;51.646;7.078;2023-09-18T10:25:13;6.82;;;6.53;;
35612;SDS011;22054;51.646;7.078;2023-09-18T10:27:44;6.80;;;6.50;;
35612;SDS011;22054;51.646;7.078;2023-09-18T10:30:19;7.30;;;7.00;;
35612;SDS011;22054;51.646;7.078;2023-09-18T10:32:50;7.10;;;6.80;;
35612;SDS011;22054;51.646;7.078;2023-09-18T10:35:16;6.90;;;6.60;;
35612;SDS011;22054;51.646;7.078;2023-09-18T10:37:44;6.90;;;6.60;;
35612;SDS011;22054;51.646;7.078;2023-09-18T10:40:12;7.00;;;6.70;;
35612;SDS011;22054;51.646;7.078;2023-09-18T10:42:40;7.28;;;6.97;;
35612;SDS011;22054;51.646;7.078;2023-09-18T10:45:07;6.03;;;5.82;;
35612;SDS011;22054;51.646;7.078;2023-09-18T10:47:39;7.40;;;7.10;;
35612;SDS011;22054;51.646;7.078;2023-09-18T10:50:08;7.00;;;6.70;;
35612;SDS011;22054;51.646;7.078;2023-09-18T10:52:46;7.45;;;7.15;;
35612;SDS011;22054;51.646;7.078;2023-09-18T10:55:14;6.65;;;6.40;;
35612;SDS011;22054;51.646;7.078;2023-09-18T10:57:50;6.80;;;6.50;;
35612;SDS011;22054;51.646;7.078;2023-09-18T11:00:24;7.28;;;6.97;;
35612;SDS011;22054;51.646;7.078;2023-09-18T11:02:52;7.28;;;6.97;;
35612;SDS011;22054;51.646;7.078;2023-09-18T11:05:30;7.78;;;7.47;;
35612;SDS011;22054;51.646;7.078;2023-09-18T11:13:40;7.70;;;7.40;;
35612;SDS011;22054;51.646;7.078;2023-09-18T11:16:15;7.50;;;7.20;;
35612;SDS011;22054;51.646;7.078;2023-09-18T11:18:42;7.70;;;7.40;;
35612;SDS011;22054;51.646;7.078;2023-09-18T11:21:11;7.28;;;6.97;;
35612;SDS011;22054;51.646;7.078;2023-09-18T11:23:38;8.20;;;7.90;;
35612;SDS011;22054;51.646;7.078;2023-09-18T11:26:11;8.98;;;8.63;;
35612;SDS011;22054;51.646;7.078;2023-09-18T11:28:40;8.00;;;7.70;;
35612;SDS011;22054;51.646;7.078;2023-09-18T11:31:08;7.78;;;7.47;;
35612;SDS011;22054;51.646;7.078;2023-09-18T11:36:12;8.02;;;7.72;;
35612;SDS011;22054;51.646;7.078;2023-09-18T11:38:56;8.55;;;8.25;;
35612;SDS011;22054;51.646;7.078;2023-09-18T11:41:28;8.52;;;8.23;;
35612;SDS011;22054;51.646;7.078;2023-09-18T11:46:49;7.55;;;7.25;;
35612;SDS011;22054;51.646;7.078;2023-09-18T11:49:23;7.50;;;7.20;;
35612;SDS011;22054;51.646;7.078;2023-09-18T11:51:53;8.13;;;7.82;;
35612;SDS011;22054;51.646;7.078;2023-09-18T11:54:24;7.47;;;7.18;;
35612;SDS011;22054;51.646;7.078;2023-09-18T11:56:50;7.20;;;6.90;;
35612;SDS011;22054;51.646;7.078;2023-09-18T11:59:16;7.68;;;7.38;;
35612;SDS011;22054;51.646;7.078;2023-09-18T12:01:51;8.20;;;7.90;;
35612;SDS011;22054;51.646;7.078;2023-09-18T12:04:26;7.80;;;7.50;;
35612;SDS011;22054;51.646;7.078;2023-09-18T12:06:53;7.40;;;7.10;;
35612;SDS011;22054;51.646;7.078;2023-09-18T12:09:19;7.60;;;7.30;;
35612;SDS011;22054;51.646;7.078;2023-09-18T12:11:50;7.45;;;7.15;;
35612;SDS011;22054;51.646;7.078;2023-09-18T12:14:19;7.65;;;7.35;;
35612;SDS011;22054;51.646;7.078;2023-09-18T12:16:46;7.97;;;7.68;;
35612;SDS011;22054;51.646;7.078;2023-09-18T12:19:18;7.28;;;6.97;;
35612;SDS011;22054;51.646;7.078;2023-09-18T12:21:50;7.90;;;7.60;;
35612;SDS011;22054;51.646;7.078;2023-09-18T12:24:24;7.55;;;7.25;;
35612;SDS011;22054;51.646;7.078;2023-09-18T12:34:46;7.25;;;6.95;;
35612;SDS011;22054;51.646;7.078;2023-09-18T12:41:17;7.60;;;7.30;;
35612;SDS011;22054;51.646;7.078;2023-09-18T12:44:11;7.63;;;7.32;;
35612;SDS011;22054;51.646;7.078;2023-09-18T12:46:39;7.30;;;7.00;;
35612;SDS011;22054;51.646;7.078;2023-09-18T12:49:23;7.40;;;7.10;;
35612;SDS011;22054;51.646;7.078;2023-09-18T12:52:01;7.15;;;6.85;;
35612;SDS011;22054;51.646;7.078;2023-09-18T12:54:44;7.90;;;7.60;;
35612;SDS011;22054;51.646;7.078;2023-09-18T12:57:19;8.00;;;7.70;;
35612;SDS011;22054;51.646;7.078;2023-09-18T12:59:48;7.60;;;7.30;;
35612;SDS011;22054;51.646;7.078;2023-09-18T13:02:19;8.85;;;8.55;;
35612;SDS011;22054;51.646;7.078;2023-09-18T13:04:53;8.80;;;8.50;;
35612;SDS011;22054;51.646;7.078;2023-09-18T13:07:21;8.55;;;8.25;;
35612;SDS011;22054;51.646;7.078;2023-09-18T13:12:48;8.30;;;8.00;;
35612;SDS011;22054;51.646;7.078;2023-09-18T13:15:33;8.07;;;7.78;;
35612;SDS011;22054;51.646;7.078;2023-09-18T13:18:10;8.15;;;7.85;;
35612;SDS011;22054;51.646;7.078;2023-09-18T13:20:51;7.93;;;7.63;;
35612;SDS011;22054;51.646;7.078;2023-09-18T13:23:21;8.10;;;7.80;;
35612;SDS011;22054;51.646;7.078;2023-09-18T13:26:00;7.68;;;7.38;;
35612;SDS011;22054;51.646;7.078;2023-09-18T13:28:28;8.02;;;7.72;;
35612;SDS011;22054;51.646;7.078;2023-09-18T13:30:59;8.00;;;7.70;;
35612;SDS011;22054;51.646;7.078;2023-09-18T13:33:42;7.82;;;7.53;;
35612;SDS011;22054;51.646;7.078;2023-09-18T13:36:10;7.80;;;7.50;;
35612;SDS011;22054;51.646;7.078;2023-09-18T13:38:36;7.57;;;7.28;;
35612;SDS011;22054;51.646;7.078;2023-09-18T13:41:06;8.20;;;7.90;;
35612;SDS011;22054;51.646;7.078;2023-09-18T13:43:32;7.78;;;7.47;;
35612;SDS011;22054;51.646;7.078;2023-09-18T13:45:59;8.35;;;8.05;;
35612;SDS011;22054;51.646;7.078;2023-09-18T13:48:30;7.70;;;7.40;;
35612;SDS011;22054;51.646;7.078;2023-09-18T13:50:57;7.87;;;7.57;;
35612;SDS011;22054;51.646;7.078;2023-09-18T13:53:27;7.70;;;7.40;;
35612;SDS011;22054;51.646;7.078;2023-09-18T13:56:04;8.60;;;8.30;;
35612;SDS011;22054;51.646;7.078;2023-09-18T13:58:30;7.85;;;7.55;;
35612;SDS011;22054;51.646;7.078;2023-09-18T14:00:55;8.20;;;7.90;;
35612;SDS011;22054;51.646;7.078;2023-09-18T14:03:23;7.82;;;7.53;;
35612;SDS011;22054;51.646;7.078;2023-09-18T14:05:49;8.40;;;8.10;;
35612;SDS011;22054;51.646;7.078;2023-09-18T14:08:18;7.90;;;7.60;;
35612;SDS011;22054;51.646;7.078;2023-09-18T14:10:44;8.10;;;7.80;;
35612;SDS011;22054;51.646;7.078;2023-09-18T14:13:12;7.90;;;7.60;;
35612;SDS011;22054;51.646;7.078;2023-09-18T14:15:39;7.40;;;7.10;;
35612;SDS011;22054;51.646;7.078;2023-09-18T14:18:05;7.15;;;6.85;;
35612;SDS011;22054;51.646;7.078;2023-09-18T14:20:31;7.75;;;7.45;;
35612;SDS011;22054;51.646;7.078;2023-09-18T14:22:56;7.90;;;7.60;;
35612;SDS011;22054;51.646;7.078;2023-09-18T14:25:22;7.35;;;7.05;;
35612;SDS011;22054;51.646;7.078;2023-09-18T14:27:49;7.80;;;7.50;;
35612;SDS011;22054;51.646;7.078;2023-09-18T14:30:15;7.85;;;7.55;;
35612;SDS011;22054;51.646;7.078;2023-09-18T14:32:41;7.82;;;7.53;;
35612;SDS011;22054;51.646;7.078;2023-09-18T14:35:07;7.80;;;7.50;;
35612;SDS011;22054;51.646;7.078;2023-09-18T14:37:34;7.50;;;7.20;;
35612;SDS011;22054;51.646;7.078;2023-09-18T14:40:01;7.50;;;7.20;;
35612;SDS011;22054;51.646;7.078;2023-09-18T14:42:27;7.63;;;7.32;;
35612;SDS011;22054;51.646;7.078;2023-09-18T14:44:53;7.80;;;7.50;;
35612;SDS011;22054;51.646;7.078;2023-09-18T14:47:19;7.57;;;7.28;;
35612;SDS011;22054;51.646;7.078;2023-09-18T14:49:46;7.50;;;7.20;;
35612;SDS011;22054;51.646;7.078;2023-09-18T14:52:12;7.45;;;7.15;;
35612;SDS011;22054;51.646;7.078;2023-09-18T14:54:41;7.68;;;7.38;;
35612;SDS011;22054;51.646;7.078;2023-09-18T14:57:06;7.10;;;6.80;;
35612;SDS011;22054;51.646;7.078;2023-09-18T14:59:35;7.78;;;7.47;;
35612;SDS011;22054;51.646;7.078;2023-09-18T15:02:04;8.10;;;7.80;;
35612;SDS011;22054;51.646;7.078;2023-09-18T15:04:33;7.40;;;7.10;;
35612;SDS011;22054;51.646;7.078;2023-09-18T15:07:00;7.13;;;6.82;;
35612;SDS011;22054;51.646;7.078;2023-09-18T15:09:26;7.80;;;7.50;;
35612;SDS011;22054;51.646;7.078;2023-09-18T15:11:54;7.43;;;7.13;;
35612;SDS011;22054;51.646;7.078;2023-09-18T15:14:20;7.20;;;6.90;;
35612;SDS011;22054;51.646;7.078;2023-09-18T15:16:46;6.95;;;6.65;;
35612;SDS011;22054;51.646;7.078;2023-09-18T15:19:12;7.30;;;7.00;;
35612;SDS011;22054;51.646;7.078;2023-09-18T15:21:39;6.80;;;6.50;;
35612;SDS011;22054;51.646;7.078;2023-09-18T15:24:06;7.40;;;7.10;;
35612;SDS011;22054;51.646;7.078;2023-09-18T15:26:32;7.60;;;7.30;;
35612;SDS011;22054;51.646;7.078;2023-09-18T15:28:58;7.20;;;6.90;;
35612;SDS011;22054;51.646;7.078;2023-09-18T15:31:24;6.93;;;6.63;;
35612;SDS011;22054;51.646;7.078;2023-09-18T15:33:51;6.75;;;6.45;;
35612;SDS011;22054;51.646;7.078;2023-09-18T15:36:19;6.50;;;6.30;;
35612;SDS011;22054;51.646;7.078;2023-09-18T15:38:46;6.70;;;6.40;;